createdAt,value
2023-01-04T00:02:29.718Z,1158.19
2023-01-04T00:05:35.920Z,1084.35
2023-01-04T00:08:43.423Z,1025.42
2023-01-04T00:11:49.614Z,970.67
2023-01-04T00:14:59.227Z,1012.81
2023-01-04T00:18:05.901Z,945.60
2023-01-04T00:21:16.239Z,868.05
2023-01-04T00:24:22.823Z,813.98
2023-01-04T00:27:29.686Z,866.80
2023-01-04T00:30:38.416Z,916.24
2023-01-04T00:33:46.040Z,1028.75
2023-01-04T00:36:52.669Z,1113.65
2023-01-04T00:39:59.588Z,956.84
2023-01-04T00:43:05.661Z,911.28
2023-01-04T00:46:15.200Z,779.32
2023-01-04T00:49:21.267Z,721.99
2023-01-04T00:52:28.336Z,681.06
2023-01-04T00:55:34.524Z,654.72
2023-01-04T00:58:41.475Z,668.13
2023-01-04T01:01:51.876Z,698.69
2023-01-04T01:04:58.915Z,714.88
2023-01-04T01:08:24.810Z,707.00
2023-01-04T01:11:32.693Z,698.73
2023-01-04T01:14:38.754Z,687.96
2023-01-04T01:17:48.301Z,708.80
2023-01-04T01:20:54.336Z,717.57
2023-01-04T01:24:02.231Z,715.08
2023-01-04T01:27:08.357Z,709.47
2023-01-04T01:30:16.228Z,692.32
2023-01-04T01:33:25.039Z,675.28
2023-01-04T01:36:32.027Z,632.68
2023-01-04T01:39:38.127Z,622.91
2023-01-04T01:42:44.992Z,630.76
2023-01-04T01:45:55.668Z,607.53
2023-01-04T01:49:15.200Z,585.68
2023-01-04T01:52:30.504Z,540.25
2023-01-04T01:55:40.100Z,511.28
2023-01-04T01:58:55.924Z,464.74
2023-01-04T02:02:02.878Z,435.64
2023-01-04T02:05:13.472Z,412.59
2023-01-04T02:08:25.487Z,396.61
2023-01-04T02:11:32.611Z,390.49
2023-01-04T02:14:38.723Z,370.14
2023-01-04T02:17:58.332Z,370.36
2023-01-04T02:21:17.815Z,362.47
2023-01-04T02:24:58.038Z,346.79
2023-01-04T02:28:14.668Z,336.87
2023-01-04T02:31:40.493Z,335.37
2023-01-04T02:34:59.245Z,337.12
2023-01-04T02:38:23.875Z,322.95
2023-01-04T02:41:37.413Z,314.77
2023-01-04T02:44:53.648Z,322.92
2023-01-04T02:48:19.754Z,320.76
2023-01-04T02:51:34.041Z,322.28
2023-01-04T02:54:42.500Z,317.05
2023-01-04T02:58:08.996Z,342.86
2023-01-04T03:01:45.655Z,344.50
2023-01-04T03:05:21.956Z,355.59
2023-01-04T03:08:37.629Z,368.04
2023-01-04T03:12:04.205Z,382.04
2023-01-04T03:15:20.219Z,383.65
2023-01-04T03:18:34.279Z,383.78
2023-01-04T03:21:49.396Z,396.61
2023-01-04T03:25:10.385Z,402.62
2023-01-04T03:28:36.047Z,454.15
2023-01-04T03:32:04.867Z,463.18
2023-01-04T03:35:23.685Z,481.19
2023-01-04T03:39:04.767Z,472.54
2023-01-04T03:42:35.957Z,438.20
2023-01-04T03:46:04.885Z,388.98
2023-01-04T03:49:25.942Z,376.63
2023-01-04T03:52:38.915Z,363.85
2023-01-04T03:55:51.841Z,366.95
2023-01-04T03:58:59.200Z,406.57
2023-01-04T04:02:08.558Z,397.62
2023-01-04T04:05:35.409Z,392.63
2023-01-04T04:08:41.429Z,392.35
2023-01-04T04:11:51.110Z,382.31
2023-01-04T04:14:57.170Z,386.17
2023-01-04T04:18:04.159Z,380.60
2023-01-04T04:21:10.560Z,382.76
2023-01-04T04:24:23.365Z,372.87
2023-01-04T04:27:32.016Z,371.27
2023-01-04T04:30:40.945Z,410.96
2023-01-04T04:33:47.108Z,635.65
2023-01-04T04:36:54.020Z,751.01
2023-01-04T04:40:00.057Z,557.51
2023-01-04T04:43:09.545Z,434.95
2023-01-04T04:46:15.761Z,394.14
2023-01-04T04:49:22.967Z,366.67
2023-01-04T04:52:29.042Z,356.83
2023-01-04T04:55:35.957Z,347.56
2023-01-04T04:58:44.897Z,333.76
2023-01-04T05:01:52.161Z,327.75
2023-01-04T05:04:58.309Z,298.94
2023-01-04T05:08:05.312Z,292.65
2023-01-04T05:11:14.218Z,283.43
2023-01-04T05:14:21.220Z,266.25
2023-01-04T05:17:27.226Z,259.02
2023-01-04T05:20:34.558Z,254.93
2023-01-04T05:23:40.696Z,245.64
2023-01-04T05:26:47.553Z,246.67
2023-01-04T05:30:08.617Z,249.32
2023-01-04T05:33:15.780Z,231.05
2023-01-04T05:36:21.958Z,223.28
2023-01-04T05:39:28.873Z,240.44
2023-01-04T05:42:34.843Z,240.66
2023-01-04T05:45:46.997Z,222.44
2023-01-04T05:48:53.080Z,217.72
2023-01-04T05:52:00.733Z,226.25
2023-01-04T05:55:07.968Z,222.71
2023-01-04T05:58:15.469Z,224.67
2023-01-04T06:01:24.149Z,212.53
2023-01-04T06:04:31.718Z,211.60
2023-01-04T06:07:37.812Z,209.38
2023-01-04T06:10:44.695Z,214.38
2023-01-04T06:13:50.845Z,214.19
2023-01-04T06:17:00.548Z,228.03
2023-01-04T06:20:09.608Z,232.66
2023-01-04T06:23:16.636Z,225.78
2023-01-04T06:26:23.271Z,232.78
2023-01-04T06:29:31.228Z,252.19
2023-01-04T06:32:40.515Z,277.68
2023-01-04T06:35:47.480Z,281.46
2023-01-04T06:38:53.555Z,292.99
2023-01-04T06:42:06.252Z,279.98
2023-01-04T06:45:14.526Z,265.62
2023-01-04T06:48:24.492Z,261.59
2023-01-04T06:51:30.588Z,261.50
2023-01-04T06:54:37.467Z,269.88
2023-01-04T06:57:43.670Z,277.07
2023-01-04T07:00:50.774Z,273.43
2023-01-04T07:03:59.413Z,245.88
2023-01-04T07:07:06.342Z,227.11
2023-01-04T07:10:13.584Z,221.11
2023-01-04T07:13:21.308Z,216.97
2023-01-04T07:16:27.435Z,213.91
2023-01-04T07:19:38.113Z,208.40
2023-01-04T07:22:44.105Z,212.97
2023-01-04T07:25:50.987Z,212.19
2023-01-04T07:29:09.437Z,214.51
2023-01-04T07:32:16.583Z,230.37
2023-01-04T07:35:26.566Z,241.33
2023-01-04T07:38:33.632Z,247.63
2023-01-04T07:41:40.869Z,260.92
2023-01-04T07:44:48.991Z,268.22
2023-01-04T07:47:55.138Z,278.41
2023-01-04T07:51:04.705Z,263.95
2023-01-04T07:54:12.370Z,259.57
2023-01-04T07:57:19.428Z,266.38
2023-01-04T08:00:25.814Z,262.79
2023-01-04T08:03:32.708Z,248.50
2023-01-04T08:06:43.153Z,227.06
2023-01-04T08:09:50.101Z,197.38
2023-01-04T08:12:56.186Z,212.21
2023-01-04T08:16:03.280Z,215.61
2023-01-04T08:19:15.248Z,240.07
2023-01-04T08:22:24.727Z,273.75
2023-01-04T08:25:30.848Z,271.37
2023-01-04T08:28:38.213Z,255.72
2023-01-04T08:31:45.033Z,235.53
2023-01-04T08:34:52.085Z,224.55
2023-01-04T08:38:28.416Z,210.74
2023-01-04T08:44:58.917Z,196.09
2023-01-04T08:48:07.190Z,187.86
2023-01-04T08:51:16.283Z,189.43
2023-01-04T08:54:25.866Z,190.48
2023-01-04T08:57:31.984Z,191.87
2023-01-04T09:00:38.971Z,191.25
2023-01-04T09:03:45.068Z,208.77
2023-01-04T09:06:51.970Z,222.69
2023-01-04T09:10:01.115Z,196.28
2023-01-04T09:13:08.492Z,182.75
2023-01-04T09:16:22.691Z,186.50
2023-01-04T09:19:29.747Z,187.11
2023-01-04T09:22:35.780Z,186.62
2023-01-04T09:25:45.785Z,166.84
2023-01-04T09:28:52.784Z,183.28
2023-01-04T09:31:59.827Z,184.88
2023-01-04T09:35:06.023Z,168.25
2023-01-04T09:38:13.015Z,168.10
2023-01-04T09:41:30.704Z,166.34
2023-01-04T09:48:25.532Z,146.77
2023-01-04T09:51:42.763Z,179.20
2023-01-04T09:55:02.789Z,174.57
2023-01-04T09:58:36.220Z,157.47
2023-01-04T10:01:54.031Z,149.59
2023-01-04T10:05:06.767Z,134.41
2023-01-04T10:08:21.300Z,133.55
2023-01-04T10:11:53.736Z,131.67
2023-01-04T10:15:32.477Z,127.64
2023-01-04T10:20:07.960Z,115.67
2023-01-04T10:22:34.852Z,123.30
2023-01-04T10:25:57.989Z,136.95
2023-01-04T10:29:50.438Z,160.81
2023-01-04T10:33:15.164Z,167.95
2023-01-04T10:36:28.032Z,160.45
2023-01-04T10:39:39.269Z,156.57
2023-01-04T10:43:02.058Z,160.95
2023-01-04T10:46:20.872Z,163.59
2023-01-04T10:49:45.743Z,163.59
2023-01-04T10:53:07.267Z,151.19
2023-01-04T10:56:27.428Z,147.94
2023-01-04T10:59:48.623Z,140.35
2023-01-04T11:03:10.754Z,135.12
2023-01-04T11:06:30.363Z,132.40
2023-01-04T11:09:46.657Z,130.30
2023-01-04T11:12:53.726Z,129.66
2023-01-04T11:16:01.700Z,133.17
2023-01-04T11:19:12.551Z,129.22
2023-01-04T11:22:31.297Z,141.59
2023-01-04T11:25:55.581Z,144.49
2023-01-04T11:29:08.939Z,151.43
2023-01-04T11:32:27.590Z,121.15
2023-01-04T11:35:46.310Z,123.45
2023-01-04T11:39:00.187Z,114.74
2023-01-04T11:42:08.777Z,118.39
2023-01-04T11:45:24.518Z,128.92
2023-01-04T11:48:41.678Z,116.41
2023-01-04T11:51:48.551Z,117.24
2023-01-04T11:54:57.443Z,114.83
2023-01-04T11:58:16.988Z,115.24
2023-01-04T12:01:27.509Z,119.56
2023-01-04T12:04:35.521Z,134.36
2023-01-04T12:07:42.337Z,133.06
2023-01-04T12:10:52.560Z,108.92
2023-01-04T12:14:00.305Z,121.97
2023-01-04T12:17:17.102Z,104.86
2023-01-04T12:20:30.135Z,92.19
2023-01-04T12:23:37.783Z,85.73
2023-01-04T12:26:47.718Z,88.93
2023-01-04T12:30:06.112Z,105.59
2023-01-04T12:33:42.579Z,104.41
2023-01-04T12:37:05.613Z,106.05
2023-01-04T12:40:57.087Z,98.85
2023-01-04T12:44:56.483Z,91.37
2023-01-04T12:48:52.549Z,97.42
2023-01-04T12:53:28.214Z,94.32
2023-01-04T12:56:12.747Z,76.64
2023-01-04T12:59:38.628Z,78.53
2023-01-04T13:02:48.383Z,75.13
2023-01-04T13:06:04.693Z,75.89
2023-01-04T13:09:25.167Z,88.42
2023-01-04T13:13:01.976Z,87.08
2023-01-04T13:16:25.663Z,87.76
2023-01-04T13:19:34.464Z,95.49
2023-01-04T13:22:57.169Z,105.98
2023-01-04T13:26:32.572Z,106.59
2023-01-04T13:29:40.095Z,92.97
2023-01-04T13:33:24.425Z,103.25
2023-01-04T13:36:15.277Z,98.79
2023-01-04T13:39:27.526Z,107.89
2023-01-04T13:42:39.367Z,105.30
2023-01-04T13:46:14.448Z,102.26
2023-01-04T13:49:21.175Z,108.69
2023-01-04T13:56:02.494Z,98.56
2023-01-04T13:59:12.269Z,90.39
2023-01-04T14:02:24.557Z,79.40
2023-01-04T14:05:31.644Z,87.25
2023-01-04T14:08:44.045Z,74.54
2023-01-04T14:15:33.988Z,70.04
2023-01-04T14:18:41.838Z,77.91
2023-01-04T14:21:49.631Z,69.55
2023-01-04T14:25:09.399Z,72.28
2023-01-04T14:28:49.555Z,94.47
2023-01-04T14:31:57.139Z,80.52
2023-01-04T14:35:17.979Z,77.02
2023-01-04T14:38:25.097Z,73.38
2023-01-04T14:41:38.041Z,75.16
2023-01-04T14:44:47.666Z,77.52
2023-01-04T14:47:53.835Z,74.16
2023-01-04T14:51:03.687Z,82.62
2023-01-04T14:54:11.059Z,74.24
2023-01-04T14:57:18.494Z,75.87
2023-01-04T15:00:27.191Z,76.61
2023-01-04T15:03:34.279Z,85.95
2023-01-04T15:06:50.375Z,66.99
2023-01-04T15:09:57.331Z,63.53
2023-01-04T15:13:04.593Z,74.95
2023-01-04T15:16:18.011Z,73.92
2023-01-04T15:19:24.159Z,77.31
2023-01-04T15:22:31.245Z,85.36
2023-01-04T15:25:37.804Z,92.95
2023-01-04T15:28:44.683Z,156.04
2023-01-04T15:31:53.460Z,118.13
2023-01-04T15:35:00.287Z,123.67
2023-01-04T15:38:06.825Z,165.96
2023-01-04T15:41:38.417Z,132.89
2023-01-04T15:44:46.095Z,109.79
2023-01-04T15:47:57.925Z,133.44
2023-01-04T15:51:07.987Z,116.51
2023-01-04T15:54:15.429Z,107.48
2023-01-04T15:57:21.499Z,92.90
2023-01-04T16:00:28.716Z,103.57
2023-01-04T16:03:38.135Z,118.19
2023-01-04T16:06:45.120Z,110.63
2023-01-04T16:09:51.251Z,112.97
2023-01-04T16:12:58.261Z,108.66
2023-01-04T16:16:04.500Z,118.35
2023-01-04T16:19:14.044Z,105.39
2023-01-04T16:22:20.247Z,126.04
2023-01-04T16:25:27.213Z,115.64
2023-01-04T16:28:33.177Z,104.23
2023-01-04T16:31:43.212Z,119.29
2023-01-04T16:34:53.881Z,124.59
2023-01-04T16:38:02.436Z,105.56
2023-01-04T16:41:10.652Z,90.07
2023-01-04T16:44:17.648Z,102.20
2023-01-04T16:47:23.972Z,87.49
2023-01-04T16:50:33.589Z,108.64
2023-01-04T16:53:40.900Z,110.02
2023-01-04T16:56:50.286Z,101.42
2023-01-04T16:59:56.373Z,125.57
2023-01-04T17:03:03.429Z,144.43
2023-01-04T17:06:16.882Z,137.83
2023-01-04T17:09:24.757Z,140.54
2023-01-04T17:12:48.362Z,127.07
2023-01-04T17:15:55.972Z,127.95
2023-01-04T17:19:02.865Z,109.47
2023-01-04T17:22:12.332Z,119.96
2023-01-04T17:25:18.410Z,119.81
2023-01-04T17:28:25.463Z,125.22
2023-01-04T17:31:35.418Z,145.68
2023-01-04T17:34:42.527Z,122.87
2023-01-04T17:37:51.155Z,135.44
2023-01-04T17:40:57.961Z,99.65
2023-01-04T17:44:06.961Z,96.86
2023-01-04T17:47:13.874Z,98.54
2023-01-04T17:50:20.736Z,105.17
2023-01-04T17:53:30.228Z,93.04
2023-01-04T17:56:37.890Z,82.98
2023-01-04T17:59:45.266Z,85.00
2023-01-04T18:02:51.307Z,75.42
2023-01-04T18:06:24.364Z,70.26
2023-01-04T18:09:28.052Z,75.32
2023-01-04T18:12:36.127Z,97.52
2023-01-04T18:15:55.003Z,95.14
2023-01-04T18:19:09.408Z,122.80
2023-01-04T18:22:15.591Z,96.33
2023-01-04T18:25:25.221Z,87.55
2023-01-04T18:28:31.591Z,124.79
2023-01-04T18:31:38.915Z,119.27
2023-01-04T18:34:45.316Z,124.45
2023-01-04T18:37:52.303Z,109.84
2023-01-04T18:41:01.014Z,104.65
2023-01-04T18:44:31.643Z,93.65
2023-01-04T18:47:34.994Z,139.18
2023-01-04T18:50:41.921Z,147.47
2023-01-04T18:53:48.090Z,160.49
2023-01-04T18:57:00.965Z,133.55
2023-01-04T19:00:08.903Z,134.89
2023-01-04T19:03:18.623Z,124.72
2023-01-04T19:06:27.121Z,139.53
2023-01-04T19:09:34.392Z,153.20
2023-01-04T19:12:43.380Z,162.51
2023-01-04T19:15:50.463Z,173.35
2023-01-04T19:18:57.799Z,162.33
2023-01-04T19:22:04.854Z,141.71
2023-01-04T19:25:11.413Z,140.30
2023-01-04T19:28:21.035Z,150.70
2023-01-04T19:31:27.054Z,146.16
2023-01-04T19:34:33.989Z,167.43
2023-01-04T19:37:39.969Z,138.13
2023-01-04T19:40:46.996Z,127.81
2023-01-04T19:43:55.600Z,113.24
2023-01-04T19:47:02.693Z,102.57
2023-01-04T19:50:10.899Z,96.50
2023-01-04T19:53:18.109Z,108.05
2023-01-04T19:56:28.583Z,101.90
2023-01-04T19:59:38.088Z,90.67
2023-01-04T20:02:44.857Z,87.93
2023-01-04T20:05:52.026Z,91.09
2023-01-04T20:08:58.990Z,85.47
2023-01-04T20:12:06.510Z,87.77
2023-01-04T20:15:16.310Z,123.76
2023-01-04T20:18:24.197Z,104.71
2023-01-04T20:21:30.449Z,124.97
2023-01-04T20:24:37.431Z,117.83
2023-01-04T20:27:43.700Z,124.71
2023-01-04T20:31:06.116Z,107.62
2023-01-04T20:34:12.475Z,104.45
2023-01-04T20:37:19.499Z,123.15
2023-01-04T20:40:25.784Z,142.01
2023-01-04T20:43:37.279Z,113.17
2023-01-04T20:46:48.240Z,121.04
2023-01-04T20:49:55.485Z,114.82
2023-01-04T20:53:01.685Z,127.00
2023-01-04T20:56:11.619Z,191.77
2023-01-04T20:59:17.979Z,162.30
2023-01-04T21:02:27.761Z,182.91
2023-01-04T21:05:37.477Z,154.56
2023-01-04T21:08:46.812Z,121.77
2023-01-04T21:11:55.745Z,112.56
2023-01-04T21:15:02.790Z,114.17
2023-01-04T21:18:12.815Z,103.85
2023-01-04T21:21:22.114Z,95.81
2023-01-04T21:24:28.257Z,104.16
2023-01-04T21:27:35.938Z,96.17
2023-01-04T21:30:43.850Z,90.09
2023-01-04T21:33:54.918Z,99.94
2023-01-04T21:37:01.060Z,107.06
2023-01-04T21:40:09.974Z,95.68
2023-01-04T21:43:21.072Z,100.03
2023-01-04T21:46:29.766Z,93.97
2023-01-04T21:49:44.048Z,88.19
2023-01-04T21:52:51.126Z,100.19
2023-01-04T21:56:02.295Z,88.57
2023-01-04T21:59:09.129Z,90.73
2023-01-04T22:02:21.033Z,98.19
2023-01-04T22:05:30.744Z,108.49
2023-01-04T22:08:38.432Z,135.64
2023-01-04T22:11:46.107Z,139.38
2023-01-04T22:14:52.127Z,161.23
2023-01-04T22:17:58.984Z,133.22
2023-01-04T22:21:11.853Z,105.31
2023-01-04T22:24:19.470Z,95.08
2023-01-04T22:27:25.530Z,102.10
2023-01-04T22:30:32.613Z,95.99
2023-01-04T22:33:40.033Z,95.09
2023-01-04T22:36:49.573Z,90.83
2023-01-04T22:39:55.568Z,83.48
2023-01-04T22:43:02.397Z,99.93
2023-01-04T22:46:13.448Z,114.79
2023-01-04T22:49:20.365Z,110.49
2023-01-04T22:52:29.076Z,104.81
2023-01-04T22:56:08.904Z,104.87
2023-01-04T22:59:02.209Z,98.63
2023-01-04T23:02:09.376Z,102.78
2023-01-04T23:05:15.637Z,103.30
2023-01-04T23:08:25.185Z,99.34
2023-01-04T23:11:35.452Z,90.50
2023-01-04T23:14:42.411Z,77.28
2023-01-04T23:17:48.611Z,85.15
2023-01-04T23:20:58.846Z,94.25
2023-01-04T23:24:08.456Z,124.87
2023-01-04T23:27:15.274Z,129.51
2023-01-04T23:30:21.794Z,99.80
2023-01-04T23:33:33.969Z,78.24
2023-01-04T23:36:45.106Z,81.46
2023-01-04T23:39:55.442Z,86.65
2023-01-04T23:43:01.705Z,76.29
2023-01-04T23:49:16.211Z,72.68
2023-01-04T23:52:23.363Z,73.38
2023-01-04T23:55:32.094Z,70.89
2023-01-04T23:58:38.944Z,72.13
